Time;durP1;ratioP1;P1;durP2;ratioP2;P2;SDS_P1;SDS_P2;PMS_P1;PMS_P2;Temp;Humidity;BMP_temperature;BMP_pressure;BME280_temperature;BME280_humidity;BME280_pressure;Samples;Min_cycle;Max_cycle;Signal;HPM_P1;HPM_P2
2023/06/03 00:01:16;;;;;;;8.90;5.43;;;;;;;15.91;100.00;96151.50;5011942;28;103060;-61
2023/06/03 00:03:46;;;;;;;7.87;5.33;;;;;;;15.86;100.00;96161.53;5011159;28;101879;-61
2023/06/03 00:06:14;;;;;;;7.13;6.00;;;;;;;15.67;100.00;96155.34;5012257;28;102950;-61
2023/06/03 00:08:42;;;;;;;8.10;6.43;;;;;;;15.59;100.00;96164.03;5011764;28;103226;-61
2023/06/03 00:11:09;;;;;;;7.40;5.77;;;;;;;15.51;100.00;96165.44;5015736;28;101838;-61
2023/06/03 00:13:36;;;;;;;7.00;5.70;;;;;;;15.48;100.00;96168.69;5011817;28;103167;-61
2023/06/03 00:16:03;;;;;;;7.90;5.90;;;;;;;15.51;100.00;96160.09;5012177;28;101716;-61
2023/06/03 00:18:30;;;;;;;7.53;6.57;;;;;;;15.48;100.00;96165.22;5010889;28;105285;-61
2023/06/03 00:21:01;;;;;;;6.27;5.67;;;;;;;15.48;100.00;96165.22;5011512;28;102555;-61
2023/06/03 00:23:28;;;;;;;6.77;6.07;;;;;;;15.40;100.00;96163.97;5010822;28;101709;-61
2023/06/03 00:25:55;;;;;;;8.67;6.13;;;;;;;15.44;100.00;96164.19;5012240;28;102385;-61
2023/06/03 00:28:22;;;;;;;9.03;6.23;;;;;;;15.47;100.00;96169.00;5011530;28;102549;-61
2023/06/03 00:30:49;;;;;;;9.03;5.97;;;;;;;15.48;100.00;96173.28;5010440;28;101882;-61
2023/06/03 00:33:16;;;;;;;7.87;5.60;;;;;;;15.36;100.00;96170.19;5014980;28;102461;-61
2023/06/03 00:35:43;;;;;;;8.53;6.20;;;;;;;15.25;100.00;96179.38;5011907;28;101882;-61
2023/06/03 00:38:11;;;;;;;6.37;5.70;;;;;;;15.38;100.00;96181.41;5010541;28;105979;-61
2023/06/03 00:40:38;;;;;;;6.43;5.17;;;;;;;15.39;100.00;96183.81;5009975;28;105609;-61
2023/06/03 00:43:05;;;;;;;6.90;5.40;;;;;;;15.40;100.00;96180.06;5010420;28;102493;-61
2023/06/03 00:45:32;;;;;;;6.20;5.50;;;;;;;15.36;100.00;96173.66;5011636;28;102259;-61
2023/06/03 00:47:59;;;;;;;9.63;5.90;;;;;;;15.33;100.00;96184.16;5009677;28;105737;-61
2023/06/03 00:50:26;;;;;;;7.63;5.47;;;;;;;15.22;100.00;96171.91;5010198;28;101915;-61
2023/06/03 00:52:54;;;;;;;7.37;5.63;;;;;;;15.21;100.00;96178.38;4993692;28;104352;-61
2023/06/03 00:55:23;;;;;;;7.80;5.87;;;;;;;15.13;100.00;96179.78;5012879;28;105536;-61
2023/06/03 00:57:51;;;;;;;7.13;5.50;;;;;;;15.08;100.00;96176.34;5010206;28;105591;-61
2023/06/03 01:00:18;;;;;;;7.97;5.60;;;;;;;15.08;100.00;96179.00;5010929;28;102600;-61
2023/06/03 01:02:46;;;;;;;5.87;5.23;;;;;;;15.08;100.00;96185.19;5011624;28;101934;-61
2023/06/03 01:05:15;;;;;;;7.37;5.63;;;;;;;14.93;100.00;96189.91;5009732;28;105227;-61
2023/06/03 01:07:49;;;;;;;6.83;6.00;;;;;;;14.93;100.00;96179.19;5009609;28;106112;-61
2023/06/03 01:10:22;;;;;;;6.90;5.73;;;;;;;14.95;100.00;96188.53;5011569;28;101693;-61
2023/06/03 01:12:59;;;;;;;6.53;5.50;;;;;;;14.84;100.00;96181.69;5011615;28;102336;-61
2023/06/03 01:15:28;;;;;;;7.63;5.90;;;;;;;14.76;100.00;96189.50;5009544;28;105387;-61
2023/06/03 01:18:00;;;;;;;7.17;5.80;;;;;;;14.84;100.00;96180.88;5013102;28;102191;-61
2023/06/03 01:20:28;;;;;;;6.67;5.33;;;;;;;14.82;100.00;96177.69;5009327;28;105538;-61
2023/06/03 01:23:11;;;;;;;6.40;5.30;;;;;;;14.68;100.00;96184.75;5009775;28;101860;-61
2023/06/03 01:25:41;;;;;;;7.23;6.20;;;;;;;14.72;100.00;96177.78;5010018;28;105106;-61
2023/06/03 01:28:09;;;;;;;7.03;6.33;;;;;;;14.69;100.00;96172.97;5008935;28;105126;-61
2023/06/03 01:30:36;;;;;;;6.93;5.50;;;;;;;14.52;100.00;96175.25;5011132;28;101885;-61
2023/06/03 01:33:05;;;;;;;9.23;5.83;;;;;;;14.58;100.00;96179.47;5011042;28;102986;-61
2023/06/03 01:35:34;;;;;;;6.83;5.87;;;;;;;14.54;100.00;96176.56;5008892;28;105456;-61
2023/06/03 01:38:03;;;;;;;5.57;4.83;;;;;;;14.54;100.00;96170.41;5014643;28;101755;-61
2023/06/03 01:40:32;;;;;;;7.23;5.73;;;;;;;14.46;100.00;96174.50;5008945;28;105446;-61
2023/06/03 01:42:59;;;;;;;6.90;5.60;;;;;;;14.30;100.00;96170.34;5010709;28;101821;-61
2023/06/03 01:45:26;;;;;;;7.67;6.10;;;;;;;14.30;100.00;96166.84;5009173;28;105330;-61
2023/06/03 01:47:53;;;;;;;8.77;5.50;;;;;;;14.35;100.00;96167.63;5010234;28;103095;-61
2023/06/03 01:50:22;;;;;;;9.13;5.67;;;;;;;14.35;100.00;96162.28;5010875;28;101827;-61
2023/06/03 01:52:49;;;;;;;9.13;5.90;;;;;;;14.31;100.00;96165.78;5009517;28;105527;-61
2023/06/03 01:55:18;;;;;;;6.67;5.97;;;;;;;14.28;100.00;96167.13;5008480;28;105374;-61
2023/06/03 01:57:48;;;;;;;8.63;5.73;;;;;;;14.29;100.00;96165.28;5009450;28;101855;-61
2023/06/03 02:00:16;;;;;;;6.83;5.63;;;;;;;14.26;100.00;96168.47;5012192;28;104883;-61
2023/06/03 02:02:48;;;;;;;5.97;5.37;;;;;;;14.29;100.00;96162.59;5009217;28;102145;-61
2023/06/03 02:05:16;;;;;;;7.47;5.67;;;;;;;14.30;100.00;96172.22;5009028;28;105694;-61
2023/06/03 02:07:43;;;;;;;7.17;5.87;;;;;;;14.23;100.00;96172.50;5008738;28;105390;-61
2023/06/03 02:10:10;;;;;;;8.63;5.80;;;;;;;14.24;100.00;96174.13;5008862;28;101848;-61
2023/06/03 02:12:37;;;;;;;6.60;5.17;;;;;;;14.17;100.00;96172.81;5009139;28;105669;-61
2023/06/03 02:15:15;;;;;;;7.00;5.37;;;;;;;14.18;100.00;96177.88;5006286;28;102438;-61
2023/06/03 02:17:43;;;;;;;7.43;5.20;;;;;;;14.13;100.00;96171.75;5009134;28;102564;-61
2023/06/03 02:20:11;;;;;;;6.57;5.00;;;;;;;14.09;100.00;96168.84;5009011;28;105307;-61
2023/06/03 02:22:38;;;;;;;8.07;5.07;;;;;;;14.06;100.00;96173.97;5011639;28;105819;-61
2023/06/03 02:25:08;;;;;;;7.10;5.53;;;;;;;14.01;100.00;96174.75;5008787;28;105700;-61
2023/06/03 02:27:36;;;;;;;6.80;5.03;;;;;;;13.86;100.00;96174.88;5008276;28;106930;-61
2023/06/03 02:30:04;;;;;;;6.90;5.20;;;;;;;13.87;100.00;96170.31;5008696;28;101866;-61
2023/06/03 02:32:33;;;;;;;7.57;5.47;;;;;;;13.54;100.00;96179.03;5010009;28;102881;-61
2023/06/03 02:35:00;;;;;;;9.03;5.33;;;;;;;13.61;100.00;96176.84;5009440;28;102644;-61
2023/06/03 02:37:27;;;;;;;7.17;5.50;;;;;;;13.51;100.00;96180.38;5008967;28;101986;-61
2023/06/03 02:39:54;;;;;;;6.10;5.50;;;;;;;13.59;100.00;96179.81;5008816;28;104091;-61
2023/06/03 02:42:22;;;;;;;6.67;5.03;;;;;;;13.55;100.00;96177.94;5009520;28;102595;-61
2023/06/03 02:44:49;;;;;;;5.70;5.20;;;;;;;13.51;100.00;96182.25;5011544;28;101913;-61
2023/06/03 02:47:16;;;;;;;8.63;5.53;;;;;;;13.55;100.00;96180.63;5007756;28;105782;-61
2023/06/03 02:49:45;;;;;;;7.13;5.30;;;;;;;13.50;100.00;96184.13;5008633;28;102029;-61
2023/06/03 02:52:12;;;;;;;5.93;5.30;;;;;;;13.48;100.00;96190.81;5008472;28;105564;-61
2023/06/03 02:54:40;;;;;;;6.13;4.83;;;;;;;13.47;100.00;96189.22;5008053;28;105375;-61
2023/06/03 02:57:08;;;;;;;6.00;4.83;;;;;;;13.48;100.00;96185.47;5009868;28;101806;-61
2023/06/03 02:59:36;;;;;;;7.80;5.27;;;;;;;13.45;100.00;96178.78;5009450;28;102544;-61
2023/06/03 03:02:03;;;;;;;5.83;5.23;;;;;;;13.51;100.00;96187.59;5007806;28;105705;-61
2023/06/03 03:04:36;;;;;;;7.37;5.47;;;;;;;13.45;100.00;96188.66;5008328;28;101905;-61
2023/06/03 03:07:07;;;;;;;5.67;5.13;;;;;;;13.39;100.00;96184.41;5011345;28;105266;-61
2023/06/03 03:09:34;;;;;;;7.03;5.00;;;;;;;13.37;100.00;96186.56;5009974;28;103313;-61
2023/06/03 03:12:01;;;;;;;6.27;5.30;;;;;;;13.26;100.00;96191.16;5008054;28;106226;-61
2023/06/03 03:14:29;;;;;;;6.20;4.90;;;;;;;13.28;100.00;96198.88;5007713;28;104246;-61
2023/06/03 03:16:56;;;;;;;6.37;4.93;;;;;;;13.21;100.00;96195.69;5008200;28;101840;-61
2023/06/03 03:19:25;;;;;;;8.03;4.83;;;;;;;13.17;100.00;96190.09;5008295;28;105667;-61
2023/06/03 03:21:52;;;;;;;5.73;5.17;;;;;;;13.16;100.00;96196.53;5007623;28;105717;-61
2023/06/03 03:24:27;;;;;;;5.13;4.57;;;;;;;13.17;100.00;96202.63;5008310;28;101852;-61
2023/06/03 03:26:55;;;;;;;5.90;4.70;;;;;;;13.16;100.00;96195.72;5008635;28;105293;-61
2023/06/03 03:29:25;;;;;;;5.00;4.57;;;;;;;13.19;100.00;96200.53;5014292;28;105148;-61
2023/06/03 03:31:59;;;;;;;6.60;4.80;;;;;;;13.03;100.00;96206.97;5011532;28;105546;-61
2023/06/03 03:34:30;;;;;;;5.33;4.53;;;;;;;13.00;100.00;96212.81;5010859;28;105492;-61
2023/06/03 03:36:57;;;;;;;5.00;4.50;;;;;;;13.02;100.00;96210.69;5011581;28;101931;-61
2023/06/03 03:39:26;;;;;;;7.53;5.03;;;;;;;13.07;100.00;96211.47;5011342;28;105557;-61
2023/06/03 03:41:54;;;;;;;7.00;4.53;;;;;;;13.15;100.00;96210.13;5010858;28;106210;-61
2023/06/03 03:44:23;;;;;;;5.10;4.30;;;;;;;13.15;100.00;96220.81;5010538;28;101953;-61
2023/06/03 03:46:58;;;;;;;6.43;4.37;;;;;;;13.12;100.00;96218.66;5011387;28;104938;-61
2023/06/03 03:49:30;;;;;;;6.93;5.07;;;;;;;13.13;100.00;96221.06;5014087;28;105459;-61
2023/06/03 03:52:04;;;;;;;6.90;4.60;;;;;;;13.02;100.00;96222.16;5011341;28;105346;-61
2023/06/03 03:54:34;;;;;;;8.77;4.80;;;;;;;13.08;100.00;96217.63;5010865;28;105052;-61
2023/06/03 03:57:07;;;;;;;6.57;4.87;;;;;;;13.09;100.00;96222.69;5011176;28;101863;-61
2023/06/03 03:59:35;;;;;;;5.17;4.67;;;;;;;13.15;100.00;96221.63;5010946;28;105795;-61
2023/06/03 04:02:02;;;;;;;4.87;4.43;;;;;;;13.16;100.00;96225.88;5010441;28;105220;-61
2023/06/03 04:04:43;;;;;;;6.53;5.23;;;;;;;13.22;100.00;96229.34;5011068;28;101913;-61
2023/06/03 04:07:14;;;;;;;6.03;4.97;;;;;;;13.31;100.00;96230.38;5012707;28;102259;-61
2023/06/03 04:09:43;;;;;;;6.90;5.17;;;;;;;13.36;100.00;96233.06;5010446;28;103947;-61
2023/06/03 04:12:29;;;;;;;6.43;4.83;;;;;;;13.48;100.00;96236.22;5014428;28;102102;-61
2023/06/03 04:14:58;;;;;;;6.27;5.20;;;;;;;13.54;100.00;96230.59;5010144;28;105069;-61
2023/06/03 04:17:27;;;;;;;5.93;4.50;;;;;;;13.54;100.00;96227.94;5010929;28;102080;-61
2023/06/03 04:19:55;;;;;;;9.00;6.37;;;;;;;13.66;100.00;96228.41;5010789;28;104901;-61
2023/06/03 04:22:26;;;;;;;7.47;5.97;;;;;;;13.76;100.00;96238.25;5009983;28;105130;-61
2023/06/03 04:24:58;;;;;;;7.13;5.90;;;;;;;13.85;100.00;96240.06;5010791;28;102022;-61
2023/06/03 04:27:31;;;;;;;6.83;5.70;;;;;;;13.97;100.00;96245.13;5010734;28;104892;-61
2023/06/03 04:30:00;;;;;;;6.80;5.47;;;;;;;14.02;100.00;96248.56;5009707;28;104561;-61
2023/06/03 04:32:29;;;;;;;5.10;4.67;;;;;;;14.14;100.00;96250.91;5010657;28;101917;-61
2023/06/03 04:34:56;;;;;;;7.03;4.67;;;;;;;14.25;100.00;96247.13;5013267;28;105303;-61
2023/06/03 04:37:24;;;;;;;5.73;5.20;;;;;;;14.37;100.00;96248.41;5010185;28;102141;-61
2023/06/03 04:39:52;;;;;;;5.60;4.60;;;;;;;14.45;100.00;96236.31;5010340;28;105028;-61
2023/06/03 04:42:21;;;;;;;7.10;5.00;;;;;;;14.51;100.00;96248.59;5009717;28;105989;-61
2023/06/03 04:44:50;;;;;;;6.27;5.00;;;;;;;14.51;100.00;96251.25;5009913;28;101910;-61
2023/06/03 04:47:17;;;;;;;6.40;5.27;;;;;;;14.57;100.00;96245.59;5010352;28;105273;-61
2023/06/03 04:49:47;;;;;;;7.97;5.27;;;;;;;14.62;100.00;96244.75;5009531;28;105184;-61
2023/06/03 04:52:14;;;;;;;6.83;4.83;;;;;;;14.77;100.00;96244.66;5010305;28;102151;-61
2023/06/03 04:54:45;;;;;;;6.80;4.70;;;;;;;14.84;100.00;96248.59;5010213;28;104157;-61
2023/06/03 04:57:14;;;;;;;6.80;4.70;;;;;;;14.96;100.00;96248.22;5013072;28;105503;-61
2023/06/03 04:59:43;;;;;;;6.17;4.70;;;;;;;15.04;100.00;96242.28;5010171;28;105226;-61
2023/06/03 05:02:13;;;;;;;7.23;4.73;;;;;;;15.08;100.00;96240.63;5009716;28;105188;-61
2023/06/03 05:04:41;;;;;;;7.53;5.00;;;;;;;15.15;100.00;96246.47;5009845;28;101877;-61
2023/06/03 05:07:10;;;;;;;7.27;5.57;;;;;;;15.20;100.00;96243.75;5010201;28;105228;-61
2023/06/03 05:09:38;;;;;;;6.47;4.77;;;;;;;15.20;100.00;96241.06;5009489;28;105251;-61
2023/06/03 05:12:07;;;;;;;7.17;5.03;;;;;;;15.20;100.00;96236.50;5011287;28;101960;-61
2023/06/03 05:14:35;;;;;;;8.33;4.77;;;;;;;15.42;100.00;96239.50;5010116;28;104750;-61
2023/06/03 05:17:04;;;;;;;6.77;4.63;;;;;;;15.54;100.00;96241.81;5009311;28;105280;-61
2023/06/03 05:19:33;;;;;;;7.67;4.87;;;;;;;15.48;100.00;96241.03;5013531;28;101937;-61
2023/06/03 05:22:03;;;;;;;6.63;4.80;;;;;;;15.53;100.00;96243.69;5009349;28;105879;-61
2023/06/03 05:24:30;;;;;;;6.43;4.80;;;;;;;15.66;100.00;96234.16;5009943;28;101929;-61
2023/06/03 05:26:58;;;;;;;6.97;4.70;;;;;;;15.75;100.00;96240.50;5009745;28;104739;-61
2023/06/03 05:29:25;;;;;;;7.77;5.10;;;;;;;15.88;100.00;96239.78;5009135;28;105478;-61
2023/06/03 05:31:53;;;;;;;7.13;5.00;;;;;;;15.86;100.00;96239.28;5011170;28;101872;-61
2023/06/03 05:34:22;;;;;;;8.53;4.90;;;;;;;15.91;100.00;96229.28;5009825;28;104757;-61
2023/06/03 05:36:49;;;;;;;7.63;4.90;;;;;;;15.90;100.00;96237.63;5008930;28;105332;-61
2023/06/03 05:39:16;;;;;;;8.00;4.97;;;;;;;15.82;100.00;96241.75;5009301;28;101985;-61
2023/06/03 05:41:44;;;;;;;7.93;5.10;;;;;;;15.88;100.00;96237.13;5012505;28;105090;-61
2023/06/03 05:44:12;;;;;;;6.73;4.60;;;;;;;15.87;100.00;96239.00;5008794;28;102176;-61
2023/06/03 05:46:40;;;;;;;7.57;5.00;;;;;;;15.65;100.00;96241.41;5009315;28;104873;-61
2023/06/03 05:49:07;;;;;;;5.67;5.03;;;;;;;15.87;100.00;96240.88;5008307;28;105383;-61
2023/06/03 05:51:35;;;;;;;6.13;4.70;;;;;;;16.09;100.00;96241.16;5009182;28;101846;-61
2023/06/03 05:54:02;;;;;;;9.90;5.50;;;;;;;16.40;100.00;96245.06;5010369;28;102598;-61
2023/06/03 05:56:29;;;;;;;9.83;5.30;;;;;;;16.73;100.00;96244.03;5008636;28;105628;-61
2023/06/03 05:58:58;;;;;;;8.57;5.10;;;;;;;16.94;100.00;96242.63;5009335;28;102015;-61
2023/06/03 06:01:26;;;;;;;6.07;4.77;;;;;;;17.21;100.00;96245.34;5011991;28;105222;-61
2023/06/03 06:03:53;;;;;;;7.60;5.37;;;;;;;17.30;100.00;96240.91;5009080;28;101927;-61
2023/06/03 06:06:20;;;;;;;8.43;5.13;;;;;;;17.35;100.00;96254.25;5009055;28;105020;-61
2023/06/03 06:08:49;;;;;;;5.80;5.10;;;;;;;17.19;100.00;96251.03;5010113;28;102544;-61
2023/06/03 06:11:16;;;;;;;8.13;5.43;;;;;;;17.24;100.00;96250.97;5009207;28;101914;-61
2023/06/03 06:13:44;;;;;;;7.03;5.03;;;;;;;17.27;100.00;96241.50;5009097;28;105039;-61
2023/06/03 06:16:11;;;;;;;6.33;5.47;;;;;;;17.48;100.00;96240.06;5008473;28;105935;-61
2023/06/03 06:18:38;;;;;;;5.57;5.07;;;;;;;17.71;100.00;96249.88;5008883;28;101981;-61
2023/06/03 06:21:05;;;;;;;7.40;5.20;;;;;;;17.64;100.00;96246.75;5009049;28;105022;-61
2023/06/03 06:23:35;;;;;;;7.27;5.43;;;;;;;17.58;100.00;96242.56;5011886;28;105200;-61
2023/06/03 06:26:06;;;;;;;7.63;5.30;;;;;;;17.76;100.00;96249.75;5008702;28;105288;-61
2023/06/03 06:28:33;;;;;;;8.93;5.70;;;;;;;17.82;100.00;96243.19;5008160;28;105570;-61
2023/06/03 06:31:06;;;;;;;6.57;5.77;;;;;;;17.98;100.00;96247.19;5009083;28;102257;-61
2023/06/03 06:33:36;;;;;;;7.00;5.03;;;;;;;18.15;100.00;96248.13;5008878;28;105661;-61
2023/06/03 06:36:21;;;;;;;9.63;5.40;;;;;;;18.28;100.00;96247.34;4991906;28;105512;-61
2023/06/03 06:38:48;;;;;;;6.93;5.33;;;;;;;18.41;100.00;96253.78;5008402;28;101842;-61
2023/06/03 06:41:17;;;;;;;11.27;5.73;;;;;;;18.52;100.00;96255.19;5008758;28;105749;-61
2023/06/03 06:43:44;;;;;;;5.47;4.97;;;;;;;18.52;100.00;96253.28;5007638;28;105543;-61
2023/06/03 06:46:11;;;;;;;6.63;5.30;;;;;;;18.47;100.00;96248.00;5013794;28;101877;-61
2023/06/03 06:48:39;;;;;;;7.73;5.37;;;;;;;18.67;100.00;96250.25;5007717;28;105829;-61
2023/06/03 06:51:07;;;;;;;6.93;5.33;;;;;;;18.78;100.00;96246.22;5008453;28;101943;-61
2023/06/03 06:53:37;;;;;;;6.53;5.30;;;;;;;18.75;100.00;96246.03;5009856;28;102538;-61
2023/06/03 06:56:09;;;;;;;6.97;5.47;;;;;;;18.84;100.00;96257.66;5008035;28;105762;-61
2023/06/03 06:58:47;;;;;;;8.40;5.40;;;;;;;18.93;100.00;96255.84;5008188;28;101774;-61
2023/06/03 07:01:15;;;;;;;8.27;5.30;;;;;;;19.00;100.00;96253.50;5010001;28;105325;-61
2023/06/03 07:03:48;;;;;;;8.97;5.93;;;;;;;19.00;100.00;96250.81;5011495;28;105186;-61
2023/06/03 07:06:16;;;;;;;6.90;5.30;;;;;;;19.03;100.00;96252.91;5011859;28;102041;-61
2023/06/03 07:08:44;;;;;;;6.87;5.27;;;;;;;19.25;100.00;96261.81;5014858;28;105280;-61
2023/06/03 07:11:13;;;;;;;7.33;5.97;;;;;;;19.24;100.00;96262.91;5012972;28;101820;-61
2023/06/03 07:13:47;;;;;;;6.87;5.63;;;;;;;19.36;100.00;96265.06;5012009;28;104830;-61
2023/06/03 07:16:16;;;;;;;7.93;6.00;;;;;;;19.54;100.00;96264.84;5011411;28;105116;-61
2023/06/03 07:18:44;;;;;;;7.30;5.63;;;;;;;19.57;100.00;96266.13;5011743;28;101993;-61
2023/06/03 07:21:11;;;;;;;7.30;5.70;;;;;;;19.70;100.00;96265.22;5011778;28;103818;-61
2023/06/03 07:23:41;;;;;;;7.40;5.90;;;;;;;19.84;100.00;96265.94;5011132;28;105573;-61
2023/06/03 07:26:10;;;;;;;7.50;5.87;;;;;;;19.93;100.00;96272.13;5011667;28;101943;-61
2023/06/03 07:28:37;;;;;;;7.87;5.90;;;;;;;19.91;100.00;96268.97;5011523;28;103561;-61
2023/06/03 07:31:14;;;;;;;7.83;5.77;;;;;;;19.93;100.00;96264.03;5014445;28;105234;-61
2023/06/03 07:33:49;;;;;;;5.70;5.03;;;;;;;19.85;100.00;96264.81;5011689;28;106016;-61
2023/06/03 07:36:20;;;;;;;6.03;5.23;;;;;;;20.09;100.00;96268.75;5011031;28;104865;-61
2023/06/03 07:39:02;;;;;;;6.67;4.97;;;;;;;20.08;100.00;96264.47;5011430;28;102305;-61
2023/06/03 07:41:38;;;;;;;6.60;5.13;;;;;;;20.26;100.00;96259.88;5011551;28;104556;-61
2023/06/03 07:44:07;;;;;;;6.03;5.50;;;;;;;20.42;100.00;96259.16;5010290;28;105524;-61
2023/06/03 07:46:56;;;;;;;7.00;5.37;;;;;;;20.33;100.00;96257.53;5012797;28;102068;-61
2023/06/03 07:49:24;;;;;;;8.37;5.40;;;;;;;20.44;100.00;96266.94;5011504;28;105306;-61
2023/06/03 07:51:52;;;;;;;5.23;4.77;;;;;;;20.61;100.00;96264.25;5010260;28;105583;-61
2023/06/03 07:54:20;;;;;;;9.10;5.77;;;;;;;20.59;100.00;96267.28;5016243;28;101719;-61
2023/06/03 07:56:47;;;;;;;8.83;5.57;;;;;;;20.78;100.00;96272.38;5010665;28;105604;-61
2023/06/03 07:59:17;;;;;;;7.60;5.53;;;;;;;20.44;100.00;96261.53;5012729;28;101834;-61
2023/06/03 08:01:47;;;;;;;7.57;4.87;;;;;;;20.42;100.00;96269.16;5011151;28;105426;-61
2023/06/03 08:04:30;;;;;;;8.37;5.83;;;;;;;20.76;100.00;96269.97;5011702;28;102784;-61
2023/06/03 08:07:00;;;;;;;6.63;5.53;;;;;;;21.16;100.00;96273.34;5012518;28;101773;-61
2023/06/03 08:09:29;;;;;;;8.03;5.10;;;;;;;21.23;100.00;96269.06;5012284;28;102556;-61
2023/06/03 08:11:57;;;;;;;5.63;5.10;;;;;;;21.24;100.00;96275.25;5011440;28;102893;-61
2023/06/03 08:14:25;;;;;;;6.90;4.90;;;;;;;20.93;100.00;96269.25;5015439;28;101946;-61
2023/06/03 08:16:56;;;;;;;10.97;4.73;;;;;;;20.91;100.00;96268.75;5011685;28;102592;-61
2023/06/03 08:19:23;;;;;;;6.57;5.10;;;;;;;21.18;100.00;96269.22;5011830;28;101839;-61
2023/06/03 08:21:50;;;;;;;9.43;5.50;;;;;;;21.38;100.00;96273.97;5012356;28;102335;-61
2023/06/03 08:24:17;;;;;;;8.90;4.43;;;;;;;21.60;100.00;96272.97;5011525;28;103060;-61
2023/06/03 08:26:45;;;;;;;6.60;4.83;;;;;;;21.51;100.00;96274.88;5012159;28;101827;-61
2023/06/03 08:29:12;;;;;;;5.57;4.80;;;;;;;21.39;100.00;96278.25;5012215;28;102323;-61
2023/06/03 08:31:39;;;;;;;7.83;4.60;;;;;;;21.63;100.00;96277.75;5009629;28;105919;-61
2023/06/03 08:34:07;;;;;;;6.17;4.73;;;;;;;21.46;100.00;96269.63;5010567;28;102034;-61
2023/06/03 08:36:36;;;;;;;6.33;4.30;;;;;;;21.86;100.00;96271.78;5013292;28;105597;-61
2023/06/03 08:39:03;;;;;;;6.97;4.30;;;;;;;22.27;100.00;96271.13;5010604;28;101781;-61
2023/06/03 08:41:37;;;;;;;4.93;4.40;;;;;;;22.28;100.00;96268.09;5010187;28;105284;-61
2023/06/03 08:44:13;;;;;;;5.87;4.23;;;;;;;22.22;100.00;96276.72;5011137;28;103002;-61
2023/06/03 08:46:44;;;;;;;6.23;4.73;;;;;;;22.33;100.00;96272.53;5010542;28;101962;-61
2023/06/03 08:49:23;;;;;;;6.10;4.60;;;;;;;22.50;100.00;96275.19;5011778;28;102342;-61
2023/06/03 08:51:55;;;;;;;4.33;3.90;;;;;;;22.19;100.00;96277.38;4992620;28;106499;-61
2023/06/03 08:54:31;;;;;;;6.23;4.60;;;;;;;22.56;100.00;96280.06;5010417;28;101951;-61
2023/06/03 08:57:05;;;;;;;5.70;4.33;;;;;;;22.72;100.00;96272.94;5010355;28;103629;-61
2023/06/03 08:59:33;;;;;;;5.60;4.57;;;;;;;22.05;100.00;96277.63;5014573;28;102596;-61
2023/06/03 09:02:05;;;;;;;6.13;3.93;;;;;;;22.24;100.00;96277.97;5009873;28;105731;-61
2023/06/03 09:04:34;;;;;;;5.30;4.03;;;;;;;22.54;100.00;96270.69;5011108;28;102512;-61
2023/06/03 09:07:03;;;;;;;5.93;4.17;;;;;;;22.99;94.13;96269.72;5011439;28;101894;-61
2023/06/03 09:09:32;;;;;;;5.40;4.00;;;;;;;22.71;98.81;96279.50;5011434;28;101685;-61
2023/06/03 09:12:00;;;;;;;5.53;4.40;;;;;;;22.87;92.20;96279.69;5010784;28;102511;-61
2023/06/03 09:14:28;;;;;;;4.40;3.90;;;;;;;23.24;87.71;96270.66;5011425;28;101818;-61
2023/06/03 09:16:59;;;;;;;4.20;3.80;;;;;;;23.30;95.45;96261.16;5009648;28;105760;-61
2023/06/03 09:19:27;;;;;;;6.03;4.00;;;;;;;23.26;94.44;96265.69;5010973;28;103096;-61
2023/06/03 09:21:58;;;;;;;6.17;4.07;;;;;;;23.44;88.98;96261.69;5014746;28;101822;-61
2023/06/03 09:24:25;;;;;;;5.60;3.93;;;;;;;23.15;88.42;96264.50;5008125;28;105822;-61
2023/06/03 09:26:52;;;;;;;5.30;4.10;;;;;;;23.44;83.55;96264.41;5009933;28;101966;-61
2023/06/03 09:29:20;;;;;;;5.80;4.20;;;;;;;23.60;85.37;96265.34;5011015;28;102895;-61
2023/06/03 09:31:48;;;;;;;4.83;4.00;;;;;;;23.58;83.89;96262.16;5009009;28;105763;-61
2023/06/03 09:34:15;;;;;;;4.93;4.47;;;;;;;23.39;79.58;96259.19;5009578;28;102279;-61
2023/06/03 09:36:47;;;;;;;8.87;4.47;;;;;;;23.24;84.83;96270.66;5010748;28;102894;-61
2023/06/03 09:39:17;;;;;;;6.87;3.70;;;;;;;23.43;85.56;96262.81;5009035;28;103882;-61
2023/06/03 09:41:45;;;;;;;4.63;4.23;;;;;;;23.66;82.99;96262.06;5011219;28;101678;-61
2023/06/03 09:44:12;;;;;;;4.13;3.70;;;;;;;23.88;78.11;96260.88;5013062;28;102480;-61
2023/06/03 09:46:39;;;;;;;4.43;3.80;;;;;;;23.93;78.87;96258.75;5010702;28;101862;-61
2023/06/03 09:49:10;;;;;;;6.47;4.10;;;;;;;23.78;79.63;96261.31;5011020;28;102578;-61
2023/06/03 09:51:42;;;;;;;7.17;4.57;;;;;;;24.14;77.73;96261.38;5010428;28;102546;-61
2023/06/03 09:54:14;;;;;;;5.93;4.17;;;;;;;24.23;78.40;96265.56;5010990;28;101646;-61
2023/06/03 09:56:44;;;;;;;7.17;4.13;;;;;;;24.42;68.10;96265.78;5009403;28;105190;-61
2023/06/03 09:59:17;;;;;;;6.37;4.17;;;;;;;24.52;72.62;96265.31;5010019;28;102499;-61
2023/06/03 10:01:47;;;;;;;5.97;3.80;;;;;;;24.38;67.08;96261.38;5010402;28;101845;-61
2023/06/03 10:04:17;;;;;;;5.50;3.90;;;;;;;23.73;78.27;96258.81;5010679;28;103813;-61
2023/06/03 10:06:45;;;;;;;5.07;3.90;;;;;;;24.37;74.22;96262.50;5013351;28;101675;-61
2023/06/03 10:09:19;;;;;;;7.03;4.13;;;;;;;24.77;68.21;96264.19;5009403;28;104475;-61
2023/06/03 10:11:48;;;;;;;6.73;3.90;;;;;;;24.66;73.34;96259.56;5008572;28;104306;-61
2023/06/03 10:14:17;;;;;;;5.20;3.50;;;;;;;24.55;72.91;96259.22;5008894;28;102139;-61
2023/06/03 10:17:03;;;;;;;4.33;3.90;;;;;;;25.02;65.18;96264.94;5010353;28;102629;-61
2023/06/03 10:19:33;;;;;;;4.50;3.80;;;;;;;24.71;63.11;96251.97;5009986;28;102832;-61
2023/06/03 10:22:00;;;;;;;6.13;3.60;;;;;;;24.66;74.30;96262.28;5010268;28;101824;-61
2023/06/03 10:24:30;;;;;;;5.40;3.60;;;;;;;25.21;67.70;96254.19;5010457;28;102333;-61
2023/06/03 10:26:59;;;;;;;4.73;3.70;;;;;;;24.96;66.38;96253.47;5011522;28;105288;-61
2023/06/03 10:29:26;;;;;;;4.47;3.80;;;;;;;25.14;63.17;96259.44;5008627;28;105174;-61
2023/06/03 10:31:54;;;;;;;5.53;3.50;;;;;;;25.29;64.18;96256.78;5009738;28;102465;-61
2023/06/03 10:34:22;;;;;;;4.00;3.67;;;;;;;25.22;61.92;96248.41;5010157;28;101971;-61
2023/06/03 10:36:56;;;;;;;8.97;3.80;;;;;;;25.46;66.56;96256.50;5008265;28;103796;-61
2023/06/03 10:39:25;;;;;;;5.33;3.97;;;;;;;25.44;63.39;96252.56;5009729;28;103181;-61
2023/06/03 10:41:54;;;;;;;6.53;3.67;;;;;;;25.59;61.04;96249.03;5009954;28;101842;-61
2023/06/03 10:44:23;;;;;;;4.23;3.70;;;;;;;25.74;57.11;96245.56;5009345;28;102406;-61
2023/06/03 10:46:56;;;;;;;3.70;3.40;;;;;;;25.84;61.60;96247.78;5009406;28;103841;-61
2023/06/03 10:49:27;;;;;;;6.93;4.03;;;;;;;25.66;57.92;96246.53;5012147;28;101885;-61
2023/06/03 10:52:20;;;;;;;4.93;3.90;;;;;;;25.64;60.24;96235.16;5009339;28;103026;-61
2023/06/03 10:54:59;;;;;;;4.60;3.60;;;;;;;25.70;60.11;96241.94;5010172;28;101860;-61
2023/06/03 10:57:33;;;;;;;5.20;3.23;;;;;;;26.32;58.41;96244.72;5008521;28;105707;-61
2023/06/03 11:00:03;;;;;;;6.03;3.47;;;;;;;26.01;56.62;96244.72;5009446;28;102652;-61
2023/06/03 11:03:06;;;;;;;5.43;3.37;;;;;;;26.45;58.56;96252.44;5009882;28;101981;-61
2023/06/03 11:05:33;;;;;;;5.90;4.20;;;;;;;26.24;55.79;96234.78;5009996;28;102956;-61
2023/06/03 11:08:01;;;;;;;8.63;3.53;;;;;;;25.94;55.01;96239.88;5009414;28;102026;-61
2023/06/03 11:10:40;;;;;;;4.47;3.60;;;;;;;26.43;53.04;96241.06;5009807;28;101808;-61
2023/06/03 11:13:10;;;;;;;4.10;3.70;;;;;;;26.19;54.27;96230.38;5012481;28;102362;-61
2023/06/03 11:16:01;;;;;;;4.20;3.80;;;;;;;26.23;52.69;96235.94;5009465;28;101801;-61
2023/06/03 11:18:29;;;;;;;4.10;3.60;;;;;;;26.21;54.92;96235.50;5008462;28;105111;-61
2023/06/03 11:20:56;;;;;;;4.20;3.80;;;;;;;25.58;52.90;96226.47;5009031;28;103117;-61
2023/06/03 11:23:43;;;;;;;4.80;3.20;;;;;;;26.16;56.07;96224.84;5009559;28;102044;-61
2023/06/03 11:26:32;;;;;;;7.50;3.77;;;;;;;26.66;54.69;96230.34;5009497;28;102258;-61
2023/06/03 11:29:00;;;;;;;4.70;3.37;;;;;;;26.39;54.08;96215.69;5009218;28;103131;-61
2023/06/03 11:31:29;;;;;;;6.30;3.60;;;;;;;26.49;55.39;96220.56;5009485;28;101926;-61